createdAt,value
2019-01-03T00:00:54.073Z,4.55
2019-01-03T00:01:52.603Z,4.54
2019-01-03T00:02:51.305Z,4.63
2019-01-03T00:03:49.938Z,4.62
2019-01-03T00:24:27.925Z,4.62
2019-01-03T00:25:26.443Z,4.69
2019-01-03T00:26:25.074Z,4.59
2019-01-03T00:27:23.868Z,4.67
2019-01-03T00:28:22.407Z,4.47
2019-01-03T00:29:21.155Z,4.55
2019-01-03T00:30:19.734Z,4.62
2019-01-03T00:31:18.400Z,4.45
2019-01-03T00:32:17.086Z,4.58
2019-01-03T00:33:15.895Z,4.58
2019-01-03T00:34:14.422Z,4.69
2019-01-03T00:35:13.158Z,4.58
2019-01-03T00:36:11.809Z,4.52
2019-01-03T00:37:10.355Z,4.65
2019-01-03T00:38:08.893Z,4.59
2019-01-03T00:39:07.427Z,4.75
2019-01-03T00:40:06.001Z,4.69
2019-01-03T00:41:04.529Z,4.62
2019-01-03T00:42:03.296Z,4.62
2019-01-03T00:43:01.958Z,4.63
2019-01-03T00:44:00.492Z,4.65
2019-01-03T00:44:59.334Z,4.47
2019-01-03T00:46:43.993Z,4.42
2019-01-03T00:47:42.521Z,4.36
2019-01-03T00:48:41.236Z,4.36
2019-01-03T00:49:39.914Z,4.52
2019-01-03T00:50:38.435Z,4.44
2019-01-03T00:51:37.215Z,4.4
2019-01-03T00:52:35.911Z,4.48
2019-01-03T00:53:34.464Z,4.47
2019-01-03T00:54:32.999Z,4.5
2019-01-03T00:55:31.533Z,4.54
2019-01-03T00:56:30.887Z,4.47
2019-01-03T00:57:28.822Z,4.48
2019-01-03T00:58:27.675Z,4.42
2019-01-03T00:59:26.201Z,4.41
2019-01-03T01:00:24.799Z,4.5
2019-01-03T01:01:23.615Z,4.41
2019-01-03T01:02:22.191Z,4.34
2019-01-03T01:03:21.041Z,4.59
2019-01-03T01:04:19.850Z,4.36
2019-01-03T01:05:18.408Z,4.26
2019-01-03T01:06:16.957Z,4.32
2019-01-03T01:07:15.787Z,4.4
2019-01-03T01:08:14.417Z,4.51
2019-01-03T01:09:13.065Z,4.54
2019-01-03T01:10:11.857Z,4.42
2019-01-03T01:11:10.404Z,4.36
2019-01-03T01:12:09.066Z,4.34
2019-01-03T01:13:07.684Z,4.36
2019-01-03T01:14:06.225Z,4.42
2019-01-03T01:15:04.798Z,4.23
2019-01-03T01:16:03.346Z,4.11
2019-01-03T01:17:01.880Z,4.15
2019-01-03T01:18:00.439Z,4.2
2019-01-03T01:18:59.172Z,4.27
2019-01-03T01:19:57.985Z,4.2
2019-01-03T01:20:56.578Z,4.24
2019-01-03T01:21:55.194Z,4.06
2019-01-03T01:22:53.872Z,4.04
2019-01-03T01:23:52.481Z,4.18
2019-01-03T01:24:51.160Z,4.16
2019-01-03T01:25:50.058Z,4.26
2019-01-03T01:26:48.605Z,4.34
2019-01-03T01:27:47.268Z,4.14
2019-01-03T01:28:45.915Z,3.96
2019-01-03T01:29:44.443Z,4.04
2019-01-03T01:30:43.008Z,4.04
2019-01-03T01:31:41.512Z,3.94
2019-01-03T01:32:40.124Z,3.96
2019-01-03T01:33:38.660Z,3.96
2019-01-03T01:34:37.335Z,4.08
2019-01-03T01:35:36.086Z,4.15
2019-01-03T01:36:34.638Z,4.18
2019-01-03T01:37:33.486Z,4.14
2019-01-03T01:38:32.087Z,4.18
2019-01-03T01:39:30.635Z,4.02
2019-01-03T01:40:29.171Z,4.08
2019-01-03T01:41:27.783Z,4.11
2019-01-03T01:42:26.350Z,4.02
2019-01-03T01:43:25.070Z,4.04
2019-01-03T01:44:23.975Z,4.05
2019-01-03T01:45:22.504Z,4.04
2019-01-03T01:46:21.170Z,3.94
2019-01-03T01:47:19.807Z,3.94
2019-01-03T01:48:18.441Z,4.02
2019-01-03T01:49:17.215Z,4.04
2019-01-03T01:50:16.072Z,4.04
2019-01-03T01:51:14.612Z,4
2019-01-03T01:52:13.266Z,4
2019-01-03T01:53:11.849Z,4.08
2019-01-03T01:54:10.366Z,4.06
2019-01-03T01:55:08.948Z,4.05
2019-01-03T01:56:07.498Z,3.97
2019-01-03T01:57:06.032Z,4.08
2019-01-03T01:58:04.559Z,3.98
2019-01-03T01:59:03.160Z,3.97
2019-01-03T02:00:01.820Z,4.08
2019-01-03T02:01:00.326Z,4.08
2019-01-03T02:01:58.960Z,4
2019-01-03T02:02:57.826Z,4.02
2019-01-03T02:03:56.486Z,3.97
2019-01-03T02:04:55.033Z,4.08
2019-01-03T02:05:53.637Z,4.02
2019-01-03T02:06:52.190Z,4.14
2019-01-03T02:07:50.807Z,4.04
2019-01-03T02:08:49.438Z,4.12
2019-01-03T02:09:48.177Z,4.04
2019-01-03T02:10:46.996Z,4.12
2019-01-03T02:11:45.654Z,4.14
2019-01-03T02:12:44.180Z,4.15
2019-01-03T02:13:42.750Z,4.05
2019-01-03T02:14:41.287Z,4.09
2019-01-03T02:15:39.822Z,4.11
2019-01-03T02:16:38.375Z,4.02
2019-01-03T02:17:37.150Z,3.93
2019-01-03T02:18:36.122Z,3.84
2019-01-03T02:19:34.702Z,3.97
2019-01-03T02:20:33.279Z,3.9
2019-01-03T02:21:31.847Z,3.93
2019-01-03T02:22:30.398Z,3.96
2019-01-03T02:23:29.166Z,3.84
2019-01-03T02:24:27.951Z,3.79
2019-01-03T02:25:26.483Z,3.78
2019-01-03T02:26:25.207Z,3.58
2019-01-03T02:27:23.886Z,3.6
2019-01-03T02:28:23.484Z,3.65
2019-01-03T02:29:22.010Z,3.48
2019-01-03T02:30:20.528Z,3.55
2019-01-03T02:31:19.220Z,3.55
2019-01-03T02:32:17.947Z,3.62
2019-01-03T02:33:16.610Z,3.97
2019-01-03T02:34:15.280Z,3.96
2019-01-03T02:35:13.987Z,3.72
2019-01-03T02:36:12.514Z,3.72
2019-01-03T02:37:11.042Z,3.76
2019-01-03T02:38:09.569Z,3.76
2019-01-03T02:39:08.215Z,4
2019-01-03T02:40:06.787Z,4.08
2019-01-03T02:41:05.496Z,3.86
2019-01-03T02:42:04.230Z,3.76
2019-01-03T02:43:02.896Z,3.72
2019-01-03T02:44:01.641Z,3.72
2019-01-03T02:45:00.192Z,3.57
2019-01-03T02:45:58.719Z,3.52
2019-01-03T02:46:57.233Z,3.58
2019-01-03T02:47:55.808Z,3.83
2019-01-03T02:48:54.342Z,3.84
2019-01-03T02:49:53.016Z,3.78
2019-01-03T02:50:51.978Z,3.98
2019-01-03T02:51:50.556Z,4.02
2019-01-03T02:52:49.235Z,3.8
2019-01-03T02:53:47.800Z,3.72
2019-01-03T02:54:46.354Z,3.75
2019-01-03T02:55:44.882Z,3.75
2019-01-03T02:56:43.410Z,3.72
2019-01-03T02:57:41.941Z,3.8
2019-01-03T02:58:40.483Z,3.87
2019-01-03T02:59:39.808Z,3.78
2019-01-03T03:00:38.398Z,3.86
2019-01-03T03:01:36.942Z,3.93
2019-01-03T03:02:35.491Z,3.84
2019-01-03T03:03:34.044Z,3.73
2019-01-03T03:04:32.583Z,3.84
2019-01-03T03:05:31.360Z,3.75
2019-01-03T03:06:30.111Z,3.91
2019-01-03T03:07:28.679Z,3.93
2019-01-03T03:08:27.479Z,3.88
2019-01-03T03:09:26.061Z,3.76
2019-01-03T03:10:24.607Z,3.75
2019-01-03T03:11:23.144Z,3.7
2019-01-03T03:12:21.677Z,3.8
2019-01-03T03:13:20.219Z,3.87
2019-01-03T03:14:18.812Z,3.79
2019-01-03T03:15:17.509Z,3.91
2019-01-03T03:16:16.145Z,3.93
2019-01-03T03:17:14.670Z,3.75
2019-01-03T03:18:13.476Z,3.62
2019-01-03T03:19:12.155Z,3.76
2019-01-03T03:20:10.696Z,3.83
2019-01-03T03:21:09.243Z,3.8
2019-01-03T03:22:08.128Z,3.78
2019-01-03T03:23:06.687Z,3.75
2019-01-03T03:24:05.542Z,3.76
2019-01-03T03:25:04.132Z,3.88
2019-01-03T03:26:02.631Z,3.78
2019-01-03T03:27:01.311Z,3.76
2019-01-03T03:27:59.881Z,3.7
2019-01-03T03:28:58.421Z,3.65
2019-01-03T03:29:56.939Z,3.72
2019-01-03T03:30:55.497Z,3.8
2019-01-03T03:31:54.022Z,3.84
2019-01-03T03:32:52.560Z,3.91
2019-01-03T03:33:51.252Z,3.9
2019-01-03T03:34:50.058Z,3.9
2019-01-03T03:35:48.627Z,3.94
2019-01-03T03:36:47.352Z,3.75
2019-01-03T03:37:45.956Z,3.7
2019-01-03T03:38:44.539Z,3.73
2019-01-03T03:39:43.097Z,3.78
2019-01-03T03:40:41.641Z,3.72
2019-01-03T03:41:40.173Z,3.72
2019-01-03T03:44:20.545Z,3.8
2019-01-03T03:45:19.272Z,3.78
2019-01-03T03:46:18.101Z,3.9
2019-01-03T03:47:16.644Z,3.96
2019-01-03T03:48:15.353Z,3.79
2019-01-03T03:49:14.077Z,3.87
2019-01-03T03:50:12.597Z,3.76
2019-01-03T03:51:11.467Z,3.88
2019-01-03T03:52:10.406Z,3.79
2019-01-03T03:53:08.950Z,3.78
2019-01-03T03:54:07.820Z,3.79
2019-01-03T03:55:06.362Z,3.75
2019-01-03T03:56:04.980Z,3.78
2019-01-03T03:57:03.740Z,3.94
2019-01-03T03:58:02.335Z,3.75
2019-01-03T03:59:01.093Z,3.7
2019-01-03T03:59:59.876Z,3.58
2019-01-03T04:00:58.436Z,3.5
2019-01-03T04:01:57.062Z,3.66
2019-01-03T04:02:55.754Z,3.6
2019-01-03T04:03:54.338Z,3.62
2019-01-03T04:04:52.881Z,3.66
2019-01-03T04:05:51.413Z,3.65
2019-01-03T04:06:49.969Z,3.51
2019-01-03T04:07:48.518Z,3.52
2019-01-03T04:08:47.171Z,3.39
2019-01-03T04:09:46.080Z,3.35
2019-01-03T04:10:44.651Z,3.31
2019-01-03T04:13:07.575Z,3.62
2019-01-03T04:14:06.231Z,3.66
2019-01-03T04:15:04.747Z,3.66
2019-01-03T04:16:03.675Z,3.6
2019-01-03T04:17:02.242Z,3.57
2019-01-03T04:18:00.784Z,3.58
2019-01-03T04:18:59.344Z,3.47
2019-01-03T04:19:57.905Z,3.35
2019-01-03T04:20:56.480Z,3.26
2019-01-03T04:21:55.025Z,3.11
2019-01-03T04:22:53.610Z,3.11
2019-01-03T04:23:52.143Z,3.21
2019-01-03T04:24:50.691Z,3.33
2019-01-03T04:25:49.333Z,3.4
2019-01-03T04:26:48.088Z,3.42
2019-01-03T04:27:46.853Z,3.54
2019-01-03T04:28:45.527Z,3.48
2019-01-03T04:29:44.095Z,3.52
2019-01-03T04:30:42.701Z,3.55
2019-01-03T04:31:41.467Z,3.6
2019-01-03T04:32:40.119Z,3.42
2019-01-03T04:33:38.709Z,3.26
2019-01-03T04:34:37.635Z,3.15
2019-01-03T04:35:36.197Z,3.26
2019-01-03T04:36:34.746Z,3.23
2019-01-03T04:37:33.406Z,3.1
2019-01-03T04:38:31.913Z,3.11
2019-01-03T04:39:30.470Z,3.23
2019-01-03T04:40:29.073Z,3.23
2019-01-03T04:41:27.896Z,3.26
2019-01-03T04:42:26.436Z,3.11
2019-01-03T04:43:25.155Z,3.23
2019-01-03T04:44:23.832Z,3.17
2019-01-03T04:45:22.578Z,3.26
2019-01-03T04:46:21.201Z,3.28
2019-01-03T04:47:19.960Z,3.17
2019-01-03T04:48:18.501Z,3.1
2019-01-03T04:49:17.191Z,3.21
2019-01-03T04:50:15.854Z,3.23
2019-01-03T04:51:14.572Z,3.08
2019-01-03T04:52:13.220Z,2.96
2019-01-03T04:53:12.093Z,3.15
2019-01-03T04:54:10.625Z,3.17
2019-01-03T04:55:09.428Z,3.21
2019-01-03T04:56:07.977Z,3.26
2019-01-03T04:57:06.513Z,3.23
2019-01-03T04:58:05.043Z,3.33
2019-01-03T04:59:03.633Z,3.5
2019-01-03T05:00:02.162Z,3.33
2019-01-03T05:01:00.704Z,3.33
2019-01-03T05:01:59.390Z,3.28
2019-01-03T05:02:58.026Z,3.23
2019-01-03T05:03:56.568Z,3.2
2019-01-03T05:04:55.441Z,3.17
2019-01-03T05:05:54.077Z,3.24
2019-01-03T05:06:52.648Z,3.18
2019-01-03T05:07:51.535Z,3.13
2019-01-03T05:08:50.207Z,3.18
2019-01-03T05:09:48.818Z,3.21
2019-01-03T05:10:47.492Z,3.08
2019-01-03T05:11:46.169Z,3.24
2019-01-03T05:12:44.685Z,3.28
2019-01-03T05:13:43.244Z,3.05
2019-01-03T05:14:41.801Z,3.24
2019-01-03T05:15:40.342Z,3.26
2019-01-03T05:16:38.997Z,3.2
2019-01-03T05:17:37.642Z,3.06
2019-01-03T05:18:36.295Z,3.14
2019-01-03T05:19:34.830Z,3.28
2019-01-03T05:20:33.638Z,3.26
2019-01-03T05:21:32.163Z,3.23
2019-01-03T05:22:30.706Z,3.1
2019-01-03T05:23:29.328Z,3.26
2019-01-03T05:24:27.890Z,3.24
2019-01-03T05:25:26.412Z,3.26
2019-01-03T05:26:25.066Z,3.23
2019-01-03T05:27:23.800Z,3.14
2019-01-03T05:28:22.323Z,3.14
2019-01-03T05:29:20.858Z,3.15
2019-01-03T05:30:19.811Z,3.11
2019-01-03T05:31:18.355Z,3.06
2019-01-03T05:32:16.883Z,3.05
2019-01-03T05:33:15.526Z,2.95
2019-01-03T05:34:14.153Z,2.81
2019-01-03T05:35:12.696Z,2.87
2019-01-03T05:36:11.376Z,2.87
2019-01-03T05:37:10.253Z,2.85
2019-01-03T05:38:08.775Z,2.82
2019-01-03T05:39:07.445Z,2.72
2019-01-03T05:40:06.170Z,2.72
2019-01-03T05:41:05.189Z,2.72
2019-01-03T05:42:03.254Z,2.64
2019-01-03T05:43:01.797Z,2.66
2019-01-03T05:44:00.370Z,2.69
2019-01-03T05:44:59.008Z,2.61
2019-01-03T05:45:58.639Z,2.72
2019-01-03T05:46:56.474Z,2.72
2019-01-03T05:47:55.130Z,2.6
2019-01-03T05:48:53.751Z,2.67
2019-01-03T05:49:52.299Z,2.74
2019-01-03T05:50:50.839Z,2.77
2019-01-03T05:51:49.367Z,2.74
2019-01-03T05:52:47.912Z,2.69
2019-01-03T05:53:46.439Z,2.72
2019-01-03T05:54:44.945Z,2.59
2019-01-03T05:55:43.618Z,2.61
2019-01-03T05:56:42.202Z,2.64
2019-01-03T05:57:40.744Z,2.63
2019-01-03T05:58:39.732Z,2.64
2019-01-03T05:59:38.312Z,2.66
2019-01-03T06:00:36.844Z,2.61
2019-01-03T06:01:35.442Z,2.75
2019-01-03T06:02:34.003Z,2.75
2019-01-03T06:03:32.541Z,2.69
2019-01-03T06:04:31.101Z,2.79
2019-01-03T06:05:29.621Z,2.82
2019-01-03T06:06:28.156Z,2.93
2019-01-03T06:07:26.688Z,2.95
2019-01-03T06:08:25.237Z,2.95
2019-01-03T06:09:23.966Z,2.97
2019-01-03T06:10:22.520Z,3
2019-01-03T06:11:21.165Z,3.17
2019-01-03T06:12:19.838Z,2.84
2019-01-03T06:13:18.359Z,2.79
2019-01-03T06:14:17.025Z,2.93
2019-01-03T06:15:15.709Z,2.87
2019-01-03T06:16:14.220Z,2.71
2019-01-03T06:17:12.792Z,2.78
2019-01-03T06:18:11.322Z,2.74
2019-01-03T06:19:09.841Z,2.63
2019-01-03T06:20:08.362Z,2.53
2019-01-03T06:21:06.906Z,2.64
2019-01-03T06:22:05.460Z,2.69
2019-01-03T06:23:04.006Z,2.69
2019-01-03T06:24:02.544Z,2.74
2019-01-03T06:25:01.255Z,2.85
2019-01-03T06:26:00.079Z,2.85
2019-01-03T06:26:58.624Z,2.84
2019-01-03T06:27:57.235Z,2.77
2019-01-03T06:28:55.880Z,2.56
2019-01-03T06:29:54.414Z,2.71
2019-01-03T06:30:52.956Z,2.74
2019-01-03T06:31:51.550Z,2.84
2019-01-03T06:32:50.174Z,2.85
2019-01-03T06:33:48.723Z,2.81
2019-01-03T06:34:47.871Z,2.78
2019-01-03T06:35:46.442Z,2.95
2019-01-03T06:36:45.036Z,2.97
2019-01-03T06:37:43.639Z,2.89
2019-01-03T06:38:42.173Z,2.97
2019-01-03T06:39:40.717Z,2.95
2019-01-03T06:40:39.204Z,3
2019-01-03T06:41:37.763Z,2.95
2019-01-03T06:42:36.374Z,3.11
2019-01-03T06:43:34.926Z,3.13
2019-01-03T06:44:33.559Z,3.11
2019-01-03T06:45:32.317Z,3.21
2019-01-03T06:46:31.052Z,3.23
2019-01-03T06:47:29.816Z,3.24
2019-01-03T06:48:28.897Z,3.14
2019-01-03T06:49:27.178Z,3.17
2019-01-03T06:50:26.094Z,2.99
2019-01-03T06:51:24.789Z,3.1
2019-01-03T06:52:23.368Z,2.96
2019-01-03T06:53:21.967Z,2.87
2019-01-03T06:54:20.636Z,2.74
2019-01-03T06:55:19.686Z,2.85
2019-01-03T06:56:18.265Z,3.05
2019-01-03T06:57:16.793Z,3
2019-01-03T06:58:15.453Z,2.95
2019-01-03T06:59:14.094Z,2.92
2019-01-03T07:00:12.637Z,2.9
2019-01-03T07:01:11.347Z,2.9
2019-01-03T07:02:10.033Z,2.77
2019-01-03T07:03:08.598Z,2.93
2019-01-03T07:04:07.327Z,2.84
2019-01-03T07:05:06.150Z,2.84
2019-01-03T07:06:04.742Z,2.97
2019-01-03T07:07:03.417Z,2.96
2019-01-03T07:08:02.158Z,3.11
2019-01-03T07:09:00.760Z,3
2019-01-03T07:09:59.646Z,3.06
2019-01-03T07:10:58.307Z,3.14
2019-01-03T07:11:56.852Z,3.03
2019-01-03T07:12:55.509Z,3.13
2019-01-03T07:13:54.178Z,3.14
2019-01-03T07:14:52.699Z,3
2019-01-03T07:15:51.609Z,3.13
2019-01-03T07:16:50.302Z,3.1
2019-01-03T07:17:48.906Z,3.24
2019-01-03T07:18:47.559Z,3.23
2019-01-03T07:19:46.234Z,3.08
2019-01-03T07:20:44.775Z,3.05
2019-01-03T07:21:43.855Z,3
2019-01-03T07:22:42.431Z,3.13
2019-01-03T07:23:41.228Z,3.06
2019-01-03T07:24:40.021Z,3.11
2019-01-03T07:26:55.882Z,3.23
2019-01-03T07:27:54.449Z,3.24
2019-01-03T07:28:53.275Z,3.21
2019-01-03T07:29:52.128Z,3.13
2019-01-03T07:30:50.687Z,3.17
2019-01-03T07:31:49.343Z,3.35
2019-01-03T07:32:47.971Z,3.31
2019-01-03T07:33:46.529Z,3.21
2019-01-03T07:34:45.049Z,3.28
2019-01-03T07:35:43.723Z,3.33
2019-01-03T07:36:42.288Z,3.32
2019-01-03T07:37:40.862Z,3.39
2019-01-03T07:38:39.856Z,3.28
2019-01-03T07:39:38.501Z,3.32
2019-01-03T07:40:37.115Z,3.47
2019-01-03T07:41:35.666Z,3.31
2019-01-03T07:42:34.238Z,3.26
2019-01-03T07:43:32.845Z,3.42
2019-01-03T07:44:31.548Z,3.5
2019-01-03T07:45:30.167Z,3.45
2019-01-03T07:46:28.800Z,3.32
2019-01-03T07:47:27.471Z,3.31
2019-01-03T07:48:26.223Z,3.33
2019-01-03T07:49:24.781Z,3.36
2019-01-03T07:50:23.590Z,3.4
2019-01-03T07:51:22.219Z,3.45
2019-01-03T07:52:20.986Z,3.32
2019-01-03T07:53:19.793Z,3.48
2019-01-03T07:54:18.372Z,3.5
2019-01-03T07:55:17.100Z,3.4
2019-01-03T07:56:16.007Z,3.48
2019-01-03T07:57:14.591Z,3.36
2019-01-03T07:58:13.221Z,3.36
2019-01-03T07:59:11.928Z,3.43
2019-01-03T08:00:10.528Z,3.52
2019-01-03T08:01:09.233Z,3.57
2019-01-03T08:02:08.042Z,3.52
2019-01-03T08:03:06.581Z,3.52
2019-01-03T08:04:05.320Z,3.55
2019-01-03T08:05:03.980Z,3.54
2019-01-03T08:06:02.560Z,3.68
2019-01-03T08:07:01.293Z,3.6
2019-01-03T08:08:00.132Z,3.65
2019-01-03T08:08:58.686Z,3.72
2019-01-03T08:09:57.384Z,3.62
2019-01-03T08:10:56.004Z,3.54
2019-01-03T08:11:54.659Z,3.58
2019-01-03T08:12:53.448Z,3.58
2019-01-03T08:13:52.096Z,3.62
2019-01-03T08:14:50.588Z,3.7
2019-01-03T08:15:49.431Z,3.6
2019-01-03T08:16:48.103Z,3.62
2019-01-03T08:17:46.614Z,3.73
2019-01-03T08:18:45.175Z,3.88
2019-01-03T08:19:43.739Z,3.96
2019-01-03T08:20:42.264Z,3.94
2019-01-03T08:21:40.810Z,3.8
2019-01-03T08:22:39.542Z,3.87
2019-01-03T08:23:38.274Z,3.8
2019-01-03T08:24:36.875Z,3.93
2019-01-03T08:25:35.554Z,4.04
2019-01-03T08:26:34.241Z,4.02
2019-01-03T08:27:32.800Z,4.02
2019-01-03T08:28:31.344Z,3.97
2019-01-03T08:29:29.890Z,3.96
2019-01-03T08:30:28.429Z,4
2019-01-03T08:31:27.159Z,4.11
2019-01-03T08:32:26.050Z,4.12
2019-01-03T08:33:24.867Z,4.2
2019-01-03T08:34:23.489Z,4.24
2019-01-03T08:35:22.065Z,4.11
2019-01-03T08:36:20.614Z,4.24
2019-01-03T08:37:19.306Z,4.29
2019-01-03T08:38:18.103Z,4.27
2019-01-03T08:39:16.673Z,4.33
2019-01-03T08:40:15.428Z,4.36
2019-01-03T08:41:14.119Z,4.52
2019-01-03T08:42:12.644Z,4.51
2019-01-03T08:43:11.378Z,4.48
2019-01-03T08:44:10.020Z,4.54
2019-01-03T08:45:08.558Z,4.32
2019-01-03T08:46:07.304Z,4.37
2019-01-03T08:47:05.995Z,4.34
2019-01-03T08:48:04.554Z,4.5
2019-01-03T08:49:03.103Z,4.52
2019-01-03T08:50:01.692Z,4.62
2019-01-03T08:51:00.207Z,4.6
2019-01-03T08:51:58.738Z,4.6
2019-01-03T08:52:57.410Z,4.59
2019-01-03T08:53:56.126Z,4.59
2019-01-03T08:54:54.730Z,4.6
2019-01-03T08:55:53.540Z,4.59
2019-01-03T08:56:52.226Z,4.63
2019-01-03T08:57:50.810Z,4.58
2019-01-03T08:58:49.350Z,4.55
2019-01-03T08:59:47.868Z,4.6
2019-01-03T09:00:46.391Z,4.54
2019-01-03T09:01:44.978Z,4.55
2019-01-03T09:02:43.695Z,4.47
2019-01-03T09:03:42.351Z,4.5
2019-01-03T09:04:41.004Z,4.45
2019-01-03T09:05:39.852Z,4.47
2019-01-03T09:06:38.413Z,4.51
2019-01-03T09:07:37.177Z,4.5
2019-01-03T09:08:36.132Z,4.37
2019-01-03T09:09:34.823Z,4.36
2019-01-03T09:10:33.387Z,4.3
2019-01-03T09:11:31.972Z,4.26
2019-01-03T09:12:30.569Z,4.42
2019-01-03T09:13:29.140Z,4.34
2019-01-03T09:14:27.874Z,4.29
2019-01-03T09:15:26.506Z,4.44
2019-01-03T09:16:25.065Z,4.37
2019-01-03T09:17:23.862Z,4.36
2019-01-03T09:18:22.412Z,4.23
2019-01-03T09:19:21.062Z,4.27
2019-01-03T09:20:19.627Z,4.3
2019-01-03T09:21:18.154Z,4.29
2019-01-03T09:22:16.769Z,4.26
2019-01-03T09:23:15.457Z,4.24
2019-01-03T09:24:14.173Z,4.32
2019-01-03T09:25:12.711Z,4.29
2019-01-03T09:26:11.487Z,4.23
2019-01-03T09:27:12.408Z,4.24
2019-01-03T09:28:08.855Z,4.37
2019-01-03T09:29:07.567Z,4.36
2019-01-03T09:30:06.276Z,4.36
2019-01-03T09:31:05.563Z,4.33
2019-01-03T09:32:04.227Z,4.34
2019-01-03T09:33:02.752Z,4.42
2019-01-03T09:34:01.581Z,4.32
2019-01-03T09:35:00.266Z,4.34
2019-01-03T09:35:58.795Z,4.41
2019-01-03T09:36:57.554Z,4.4
2019-01-03T09:37:56.177Z,4.55
2019-01-03T09:38:54.759Z,4.55
2019-01-03T09:39:53.256Z,4.41
2019-01-03T09:40:52.109Z,4.4
2019-01-03T09:41:50.657Z,4.47
2019-01-03T09:42:49.427Z,4.4
2019-01-03T09:43:47.993Z,4.27
2019-01-03T09:44:46.530Z,4.32
2019-01-03T09:45:45.349Z,4.32
2019-01-03T09:46:44.189Z,4.33
2019-01-03T09:47:42.696Z,4.42
2019-01-03T09:48:41.430Z,4.58
2019-01-03T09:49:40.091Z,4.6
2019-01-03T09:50:38.666Z,4.62
2019-01-03T09:51:37.427Z,4.77
2019-01-03T09:52:36.101Z,4.75
2019-01-03T09:53:34.754Z,4.67
2019-01-03T09:54:33.417Z,4.85
2019-01-03T09:55:32.094Z,4.89
2019-01-03T09:56:30.652Z,4.92
2019-01-03T09:57:29.218Z,4.92
2019-01-03T09:58:27.790Z,4.91
2019-01-03T09:59:26.355Z,4.92
2019-01-03T10:00:24.915Z,5.07
2019-01-03T10:01:23.575Z,5.1
2019-01-03T10:02:22.271Z,5.04
2019-01-03T10:03:20.835Z,5.1
2019-01-03T10:04:19.664Z,5.07
2019-01-03T10:05:18.301Z,5.12
2019-01-03T10:06:16.849Z,5.04
2019-01-03T10:07:15.439Z,5.07
2019-01-03T10:08:19.480Z,5.02
2019-01-03T10:09:12.774Z,4.92
2019-01-03T10:10:11.624Z,4.89
2019-01-03T10:11:10.207Z,5.13
2019-01-03T10:12:08.734Z,4.96
2019-01-03T10:13:07.373Z,4.94
2019-01-03T10:14:05.915Z,4.85
2019-01-03T10:15:04.494Z,4.85
2019-01-03T10:16:03.094Z,4.75
2019-01-03T10:17:01.844Z,4.77
2019-01-03T10:18:00.468Z,4.75
2019-01-03T10:18:58.993Z,4.8
2019-01-03T10:19:57.994Z,4.7
2019-01-03T10:20:56.595Z,4.73
2019-01-03T10:21:55.274Z,4.72
2019-01-03T10:22:54.046Z,4.75
2019-01-03T10:23:52.588Z,4.69
2019-01-03T10:24:51.365Z,4.58
2019-01-03T10:25:50.082Z,4.65
2019-01-03T10:26:48.731Z,4.59
2019-01-03T10:27:47.440Z,4.48
2019-01-03T10:28:46.133Z,4.65
2019-01-03T10:29:44.672Z,4.75
2019-01-03T10:30:43.420Z,4.55
2019-01-03T10:31:42.287Z,4.52
2019-01-03T10:32:40.874Z,4.62
2019-01-03T10:33:39.548Z,4.62
2019-01-03T10:34:38.348Z,4.69
2019-01-03T10:35:36.884Z,4.63
2019-01-03T10:36:35.645Z,4.6
2019-01-03T10:37:34.256Z,4.66
2019-01-03T10:38:32.824Z,4.88
2019-01-03T10:39:31.360Z,4.99
2019-01-03T10:40:30.046Z,5.02
2019-01-03T10:41:28.568Z,5.09
2019-01-03T10:42:27.151Z,5.15
2019-01-03T10:43:25.990Z,4.99
2019-01-03T10:44:24.563Z,4.99
2019-01-03T10:45:23.176Z,4.99
2019-01-03T10:46:21.927Z,5.2
2019-01-03T10:47:20.469Z,5.15
2019-01-03T10:48:19.221Z,5.21
2019-01-03T10:49:18.102Z,5.33
2019-01-03T10:50:16.647Z,5.31
2019-01-03T10:51:15.376Z,5.39
2019-01-03T10:52:14.008Z,5.25
2019-01-03T10:54:54.055Z,5.27
2019-01-03T10:55:52.581Z,5.27
2019-01-03T10:56:51.327Z,5.31
2019-01-03T10:57:50.126Z,5.3
2019-01-03T10:58:48.675Z,5.07
2019-01-03T10:59:47.341Z,5.24
2019-01-03T11:00:45.946Z,5.21
2019-01-03T11:01:44.445Z,5.35
2019-01-03T11:02:43.255Z,5.35
2019-01-03T11:03:42.120Z,5.33
2019-01-03T11:04:40.701Z,5.28
2019-01-03T11:05:39.326Z,5.33
2019-01-03T11:06:38.078Z,5.4
2019-01-03T11:07:36.630Z,5.38
2019-01-03T11:08:35.170Z,5.21
2019-01-03T11:09:33.719Z,5.09
2019-01-03T11:10:32.232Z,5.13
2019-01-03T11:11:30.790Z,5.22
2019-01-03T11:24:03.594Z,5.45
2019-01-03T11:25:02.256Z,5.39
2019-01-03T11:26:00.811Z,5.28
2019-01-03T11:26:59.450Z,5.21
2019-01-03T11:27:58.192Z,5.22
2019-01-03T11:28:56.711Z,5.1
2019-01-03T11:29:55.473Z,5.31
2019-01-03T11:30:54.217Z,5.21
2019-01-03T11:31:52.901Z,5.15
2019-01-03T11:32:51.601Z,5.27
2019-01-03T11:35:36.008Z,5.3
2019-01-03T11:36:34.581Z,5.38
2019-01-03T11:37:33.199Z,5.21
2019-01-03T11:38:32.080Z,5.22
2019-01-03T11:39:30.678Z,5.24
2019-01-03T11:40:29.532Z,5.17
2019-01-03T11:41:28.138Z,5.22
2019-01-03T11:42:26.702Z,5.33
2019-01-03T11:43:25.254Z,5.39
2019-01-03T11:44:23.788Z,5.49
2019-01-03T11:45:22.274Z,5.43
2019-01-03T11:46:20.833Z,5.46
2019-01-03T11:47:19.683Z,5.36
2019-01-03T11:48:18.302Z,5.46
2019-01-03T11:49:16.983Z,5.35
2019-01-03T11:50:15.642Z,5.35
2019-01-03T11:51:14.264Z,5.54
2019-01-03T11:52:12.865Z,5.43
2019-01-03T11:53:11.398Z,5.42
2019-01-03T11:54:09.952Z,5.4
2019-01-03T11:55:08.636Z,5.57
2019-01-03T11:56:07.351Z,5.6
2019-01-03T11:57:06.053Z,5.76
2019-01-03T11:58:04.601Z,5.74
2019-01-03T11:59:03.295Z,5.83
2019-01-03T12:00:01.963Z,5.9
2019-01-03T12:01:00.512Z,5.96
2019-01-03T12:01:59.355Z,5.82
2019-01-03T12:02:58.270Z,5.75
2019-01-03T12:03:56.816Z,5.61
2019-01-03T12:04:55.513Z,5.71
2019-01-03T12:05:54.131Z,5.74
2019-01-03T12:06:52.645Z,5.53
2019-01-03T12:07:51.498Z,5.67
2019-01-03T12:08:50.126Z,5.49
2019-01-03T12:09:48.705Z,5.4
2019-01-03T12:10:47.412Z,5.38
2019-01-03T12:11:46.140Z,5.39
2019-01-03T12:12:44.708Z,5.42
2019-01-03T12:13:43.458Z,5.27
2019-01-03T12:14:42.125Z,5.17
2019-01-03T12:15:40.661Z,5.31
2019-01-03T12:16:39.503Z,5.3
2019-01-03T12:17:38.192Z,5.35
2019-01-03T12:18:36.789Z,5.28
2019-01-03T12:19:35.344Z,5.28
2019-01-03T12:20:33.844Z,5.31
2019-01-03T12:21:32.394Z,5.38
2019-01-03T12:22:31.261Z,5.35
2019-01-03T12:23:29.974Z,5.31
2019-01-03T12:24:30.662Z,5.4
2019-01-03T12:28:07.736Z,5.54
2019-01-03T12:29:06.344Z,5.64
2019-01-03T12:30:04.956Z,5.61
2019-01-03T12:31:03.606Z,5.56
2019-01-03T12:32:04.210Z,5.45
2019-01-03T12:33:02.797Z,5.49
2019-01-03T12:34:01.417Z,5.43
2019-01-03T12:35:00.035Z,5.49
2019-01-03T12:35:58.815Z,5.46
2019-01-03T12:36:57.665Z,5.46
2019-01-03T12:37:56.225Z,5.53
2019-01-03T12:38:54.938Z,5.53
2019-01-03T12:39:53.521Z,5.48
2019-01-03T12:40:52.106Z,5.38
2019-01-03T12:41:50.646Z,5.39
2019-01-03T12:42:49.380Z,5.42
2019-01-03T12:43:48.158Z,5.51
2019-01-03T12:44:46.763Z,5.49
2019-01-03T12:56:29.668Z,5.58
2019-01-03T12:57:28.346Z,5.56
2019-01-03T12:58:26.974Z,5.46
2019-01-03T12:59:25.745Z,5.43
2019-01-03T13:00:24.324Z,5.53
2019-01-03T13:01:22.873Z,5.38
2019-01-03T13:02:21.636Z,5.51
2019-01-03T13:03:20.384Z,5.64
2019-01-03T13:04:19.025Z,5.57
2019-01-03T13:05:17.783Z,5.6
2019-01-03T13:06:20.920Z,5.53
2019-01-03T13:07:14.985Z,5.64
2019-01-03T13:08:13.798Z,5.61
2019-01-03T13:09:16.328Z,5.56
2019-01-03T13:10:14.962Z,5.53
2019-01-03T13:11:13.706Z,5.49
2019-01-03T13:12:12.372Z,5.51
2019-01-03T13:13:11.090Z,5.6
2019-01-03T13:14:10.089Z,5.42
2019-01-03T13:15:08.785Z,5.48
2019-01-03T13:16:07.387Z,5.53
2019-01-03T13:17:05.991Z,5.31
2019-01-03T13:18:04.541Z,5.54
2019-01-03T13:19:03.377Z,5.39
2019-01-03T13:20:02.093Z,5.58
2019-01-03T13:21:00.639Z,5.57
2019-01-03T13:22:00.197Z,5.6
2019-01-03T13:22:58.743Z,5.68
2019-01-03T13:23:57.452Z,5.64
2019-01-03T13:24:56.091Z,5.54
2019-01-03T13:25:54.633Z,5.64
2019-01-03T13:26:53.350Z,5.53
2019-01-03T13:27:52.174Z,5.48
2019-01-03T13:28:50.717Z,5.36
2019-01-03T13:29:49.413Z,5.39
2019-01-03T13:30:48.105Z,5.43
2019-01-03T13:31:46.811Z,5.42
2019-01-03T13:32:45.498Z,5.38
2019-01-03T13:33:44.209Z,5.4
2019-01-03T13:34:42.733Z,5.46
2019-01-03T13:35:41.383Z,5.3
2019-01-03T13:36:40.103Z,5.38
2019-01-03T13:37:38.633Z,5.39
2019-01-03T13:38:37.163Z,5.49
2019-01-03T13:39:35.853Z,5.42
2019-01-03T13:40:34.438Z,5.43
2019-01-03T13:41:33.047Z,5.39
2019-01-03T13:42:32.082Z,5.35
2019-01-03T13:43:30.680Z,5.3
2019-01-03T13:44:29.191Z,5.36
2019-01-03T13:45:27.817Z,5.39
2019-01-03T13:46:26.462Z,5.36
2019-01-03T13:49:06.696Z,5.3
2019-01-03T13:50:05.587Z,5.1
2019-01-03T13:51:04.317Z,5.07
2019-01-03T13:52:02.884Z,5.12
2019-01-03T13:53:01.699Z,5.04
2019-01-03T13:54:00.339Z,5.03
2019-01-03T13:54:58.912Z,5
2019-01-03T13:55:57.886Z,4.99
2019-01-03T13:56:56.480Z,4.96
2019-01-03T13:57:55.021Z,5.03
2019-01-03T13:58:53.829Z,5.03
2019-01-03T13:59:52.614Z,5.04